sensor_id;sensor_type;location;lat;lon;timestamp;temperature;humidity
17489;DHT22;8861;52.644;4.734;2022-08-16T00:01:50;20.90;99.90
17489;DHT22;8861;52.644;4.734;2022-08-16T00:04:17;20.80;99.90
17489;DHT22;8861;52.644;4.734;2022-08-16T00:06:44;20.80;99.90
17489;DHT22;8861;52.644;4.734;2022-08-16T00:09:11;20.80;99.90
17489;DHT22;8861;52.644;4.734;2022-08-16T00:11:39;20.80;99.90
17489;DHT22;8861;52.644;4.734;2022-08-16T00:14:09;20.70;99.90
17489;DHT22;8861;52.644;4.734;2022-08-16T00:16:38;20.70;99.90
17489;DHT22;8861;52.644;4.734;2022-08-16T00:19:06;20.60;99.90
17489;DHT22;8861;52.644;4.734;2022-08-16T00:21:33;20.60;99.90
17489;DHT22;8861;52.644;4.734;2022-08-16T00:24:00;20.70;99.90
17489;DHT22;8861;52.644;4.734;2022-08-16T00:26:27;20.60;99.90
17489;DHT22;8861;52.644;4.734;2022-08-16T00:28:54;20.60;99.90
17489;DHT22;8861;52.644;4.734;2022-08-16T00:31:21;20.70;99.90
17489;DHT22;8861;52.644;4.734;2022-08-16T00:33:50;20.60;99.90
17489;DHT22;8861;52.644;4.734;2022-08-16T00:36:17;20.60;99.90
17489;DHT22;8861;52.644;4.734;2022-08-16T00:38:44;20.60;99.90
17489;DHT22;8861;52.644;4.734;2022-08-16T00:41:11;20.60;99.90
17489;DHT22;8861;52.644;4.734;2022-08-16T00:43:38;20.60;99.90
17489;DHT22;8861;52.644;4.734;2022-08-16T00:46:10;20.60;99.90
17489;DHT22;8861;52.644;4.734;2022-08-16T00:48:38;20.60;99.90
17489;DHT22;8861;52.644;4.734;2022-08-16T00:51:07;20.60;99.90
17489;DHT22;8861;52.644;4.734;2022-08-16T00:53:33;20.60;99.90
17489;DHT22;8861;52.644;4.734;2022-08-16T00:56:05;20.60;99.90
17489;DHT22;8861;52.644;4.734;2022-08-16T00:58:35;20.60;99.90
17489;DHT22;8861;52.644;4.734;2022-08-16T01:01:03;20.60;99.90
17489;DHT22;8861;52.644;4.734;2022-08-16T01:03:31;20.60;99.90
17489;DHT22;8861;52.644;4.734;2022-08-16T01:05:58;20.60;99.90
17489;DHT22;8861;52.644;4.734;2022-08-16T01:08:27;20.60;99.90
17489;DHT22;8861;52.644;4.734;2022-08-16T01:10:54;20.60;99.90
17489;DHT22;8861;52.644;4.734;2022-08-16T01:13:24;20.50;99.90
17489;DHT22;8861;52.644;4.734;2022-08-16T01:15:54;20.50;99.90
17489;DHT22;8861;52.644;4.734;2022-08-16T01:18:24;20.50;99.90
17489;DHT22;8861;52.644;4.734;2022-08-16T01:20:57;20.50;99.90
17489;DHT22;8861;52.644;4.734;2022-08-16T01:23:33;20.50;99.90
17489;DHT22;8861;52.644;4.734;2022-08-16T01:26:03;20.50;99.90
17489;DHT22;8861;52.644;4.734;2022-08-16T01:28:31;20.50;99.90
17489;DHT22;8861;52.644;4.734;2022-08-16T01:30:58;20.50;99.90
17489;DHT22;8861;52.644;4.734;2022-08-16T01:33:25;20.60;99.90
17489;DHT22;8861;52.644;4.734;2022-08-16T01:35:56;20.60;99.90
17489;DHT22;8861;52.644;4.734;2022-08-16T01:38:26;20.60;99.90
17489;DHT22;8861;52.644;4.734;2022-08-16T01:40:55;20.60;99.90
17489;DHT22;8861;52.644;4.734;2022-08-16T01:43:24;20.50;99.90
17489;DHT22;8861;52.644;4.734;2022-08-16T01:45:53;20.50;99.90
17489;DHT22;8861;52.644;4.734;2022-08-16T01:48:22;20.50;99.90
17489;DHT22;8861;52.644;4.734;2022-08-16T01:50:50;20.50;99.90
17489;DHT22;8861;52.644;4.734;2022-08-16T01:53:17;20.40;99.90
17489;DHT22;8861;52.644;4.734;2022-08-16T01:55:44;20.40;99.90
17489;DHT22;8861;52.644;4.734;2022-08-16T01:58:12;20.40;99.90
17489;DHT22;8861;52.644;4.734;2022-08-16T02:00:42;20.30;99.90
17489;DHT22;8861;52.644;4.734;2022-08-16T02:03:09;20.30;99.90
17489;DHT22;8861;52.644;4.734;2022-08-16T02:05:36;20.30;99.90
17489;DHT22;8861;52.644;4.734;2022-08-16T02:08:04;20.20;99.90
17489;DHT22;8861;52.644;4.734;2022-08-16T02:10:32;20.20;99.90
17489;DHT22;8861;52.644;4.734;2022-08-16T02:12:59;20.20;99.90
17489;DHT22;8861;52.644;4.734;2022-08-16T02:15:28;20.20;99.90
17489;DHT22;8861;52.644;4.734;2022-08-16T02:17:58;20.10;99.90
17489;DHT22;8861;52.644;4.734;2022-08-16T02:20:27;20.10;99.90
17489;DHT22;8861;52.644;4.734;2022-08-16T02:22:55;20.10;99.90
17489;DHT22;8861;52.644;4.734;2022-08-16T02:25:23;20.10;99.90
17489;DHT22;8861;52.644;4.734;2022-08-16T02:27:50;20.00;99.90
17489;DHT22;8861;52.644;4.734;2022-08-16T02:30:21;20.10;99.90
17489;DHT22;8861;52.644;4.734;2022-08-16T02:32:48;20.00;99.90
17489;DHT22;8861;52.644;4.734;2022-08-16T02:35:16;20.00;99.90
17489;DHT22;8861;52.644;4.734;2022-08-16T02:37:43;20.00;99.90
17489;DHT22;8861;52.644;4.734;2022-08-16T02:40:11;20.00;99.90
17489;DHT22;8861;52.644;4.734;2022-08-16T02:42:38;20.00;99.90
17489;DHT22;8861;52.644;4.734;2022-08-16T02:45:06;20.00;99.90
17489;DHT22;8861;52.644;4.734;2022-08-16T02:47:33;20.00;99.90
17489;DHT22;8861;52.644;4.734;2022-08-16T02:50:00;19.90;99.90
17489;DHT22;8861;52.644;4.734;2022-08-16T02:52:28;19.90;99.90
17489;DHT22;8861;52.644;4.734;2022-08-16T02:54:55;19.90;99.90
17489;DHT22;8861;52.644;4.734;2022-08-16T02:57:22;19.90;99.90
17489;DHT22;8861;52.644;4.734;2022-08-16T02:59:50;19.90;99.90
17489;DHT22;8861;52.644;4.734;2022-08-16T03:02:16;19.90;99.90
17489;DHT22;8861;52.644;4.734;2022-08-16T03:04:44;19.80;99.90
17489;DHT22;8861;52.644;4.734;2022-08-16T03:07:11;19.80;99.90
17489;DHT22;8861;52.644;4.734;2022-08-16T03:09:40;19.80;99.90
17489;DHT22;8861;52.644;4.734;2022-08-16T03:12:07;19.80;99.90
17489;DHT22;8861;52.644;4.734;2022-08-16T03:14:34;19.70;99.90
17489;DHT22;8861;52.644;4.734;2022-08-16T03:17:01;19.70;99.90
17489;DHT22;8861;52.644;4.734;2022-08-16T03:19:30;19.70;99.90
17489;DHT22;8861;52.644;4.734;2022-08-16T03:21:57;19.70;99.90
17489;DHT22;8861;52.644;4.734;2022-08-16T03:24:24;19.70;99.90
17489;DHT22;8861;52.644;4.734;2022-08-16T03:26:54;19.70;99.90
17489;DHT22;8861;52.644;4.734;2022-08-16T03:29:23;19.70;99.90
17489;DHT22;8861;52.644;4.734;2022-08-16T03:31:51;19.70;99.90
17489;DHT22;8861;52.644;4.734;2022-08-16T03:34:19;19.70;99.90
17489;DHT22;8861;52.644;4.734;2022-08-16T03:36:46;19.60;99.90
17489;DHT22;8861;52.644;4.734;2022-08-16T03:39:13;19.60;99.90
17489;DHT22;8861;52.644;4.734;2022-08-16T03:41:40;19.60;99.90
17489;DHT22;8861;52.644;4.734;2022-08-16T03:44:08;19.60;99.90
17489;DHT22;8861;52.644;4.734;2022-08-16T03:46:35;19.60;99.90
17489;DHT22;8861;52.644;4.734;2022-08-16T03:49:03;19.60;99.90
17489;DHT22;8861;52.644;4.734;2022-08-16T03:51:30;19.60;99.90
17489;DHT22;8861;52.644;4.734;2022-08-16T03:53:57;19.50;99.90
17489;DHT22;8861;52.644;4.734;2022-08-16T03:56:24;19.50;99.90
17489;DHT22;8861;52.644;4.734;2022-08-16T03:58:52;19.50;99.90
17489;DHT22;8861;52.644;4.734;2022-08-16T04:01:23;19.50;99.90
17489;DHT22;8861;52.644;4.734;2022-08-16T04:03:51;19.50;99.90
17489;DHT22;8861;52.644;4.734;2022-08-16T04:06:19;19.60;99.90
17489;DHT22;8861;52.644;4.734;2022-08-16T04:08:46;19.50;99.90
17489;DHT22;8861;52.644;4.734;2022-08-16T04:11:13;19.50;99.90
17489;DHT22;8861;52.644;4.734;2022-08-16T04:13:40;19.50;99.90
17489;DHT22;8861;52.644;4.734;2022-08-16T04:16:08;19.50;99.90
17489;DHT22;8861;52.644;4.734;2022-08-16T04:18:38;19.50;99.90
17489;DHT22;8861;52.644;4.734;2022-08-16T04:21:07;19.50;99.90
17489;DHT22;8861;52.644;4.734;2022-08-16T04:23:34;19.50;99.90
17489;DHT22;8861;52.644;4.734;2022-08-16T04:26:04;19.50;99.90
17489;DHT22;8861;52.644;4.734;2022-08-16T04:28:31;19.50;99.90
17489;DHT22;8861;52.644;4.734;2022-08-16T04:30:58;19.50;99.90
17489;DHT22;8861;52.644;4.734;2022-08-16T04:33:25;19.50;99.90
17489;DHT22;8861;52.644;4.734;2022-08-16T04:35:55;19.60;99.90
17489;DHT22;8861;52.644;4.734;2022-08-16T04:38:23;19.60;99.90
17489;DHT22;8861;52.644;4.734;2022-08-16T04:40:50;19.60;99.90
17489;DHT22;8861;52.644;4.734;2022-08-16T04:43:17;19.60;99.90
17489;DHT22;8861;52.644;4.734;2022-08-16T04:45:45;19.60;99.90
17489;DHT22;8861;52.644;4.734;2022-08-16T04:48:13;19.60;99.90
17489;DHT22;8861;52.644;4.734;2022-08-16T04:50:40;19.60;99.90
17489;DHT22;8861;52.644;4.734;2022-08-16T04:53:08;19.60;99.90
17489;DHT22;8861;52.644;4.734;2022-08-16T04:55:35;19.60;99.90
17489;DHT22;8861;52.644;4.734;2022-08-16T04:58:02;19.60;99.90
17489;DHT22;8861;52.644;4.734;2022-08-16T05:00:31;19.60;99.90
17489;DHT22;8861;52.644;4.734;2022-08-16T05:03:00;19.60;99.90
17489;DHT22;8861;52.644;4.734;2022-08-16T05:05:29;19.60;99.90
17489;DHT22;8861;52.644;4.734;2022-08-16T05:07:56;19.60;99.90
17489;DHT22;8861;52.644;4.734;2022-08-16T05:10:25;19.70;99.90
17489;DHT22;8861;52.644;4.734;2022-08-16T05:12:52;19.80;99.90
17489;DHT22;8861;52.644;4.734;2022-08-16T05:15:19;19.90;99.90
17489;DHT22;8861;52.644;4.734;2022-08-16T05:17:47;19.90;99.90
17489;DHT22;8861;52.644;4.734;2022-08-16T05:20:13;19.90;99.90
17489;DHT22;8861;52.644;4.734;2022-08-16T05:22:40;19.90;99.90
17489;DHT22;8861;52.644;4.734;2022-08-16T05:25:08;19.90;99.90
17489;DHT22;8861;52.644;4.734;2022-08-16T05:27:37;19.90;99.90
17489;DHT22;8861;52.644;4.734;2022-08-16T05:30:06;20.00;99.90
17489;DHT22;8861;52.644;4.734;2022-08-16T05:32:34;20.00;99.90
17489;DHT22;8861;52.644;4.734;2022-08-16T05:35:02;20.20;99.90
17489;DHT22;8861;52.644;4.734;2022-08-16T05:37:32;20.30;99.90
17489;DHT22;8861;52.644;4.734;2022-08-16T05:39:59;20.40;99.90
17489;DHT22;8861;52.644;4.734;2022-08-16T05:42:26;20.60;99.90
17489;DHT22;8861;52.644;4.734;2022-08-16T05:44:54;20.70;99.90
17489;DHT22;8861;52.644;4.734;2022-08-16T05:47:21;20.80;99.90
17489;DHT22;8861;52.644;4.734;2022-08-16T05:49:48;21.00;99.90
17489;DHT22;8861;52.644;4.734;2022-08-16T05:52:15;21.10;99.90
17489;DHT22;8861;52.644;4.734;2022-08-16T05:54:42;21.20;99.90
17489;DHT22;8861;52.644;4.734;2022-08-16T05:57:09;21.20;99.90
17489;DHT22;8861;52.644;4.734;2022-08-16T05:59:36;21.30;99.90
17489;DHT22;8861;52.644;4.734;2022-08-16T06:02:05;21.40;99.90
17489;DHT22;8861;52.644;4.734;2022-08-16T06:04:33;21.40;99.90
17489;DHT22;8861;52.644;4.734;2022-08-16T06:07:00;21.60;99.90
17489;DHT22;8861;52.644;4.734;2022-08-16T06:09:30;21.60;99.90
17489;DHT22;8861;52.644;4.734;2022-08-16T06:11:58;21.70;99.90
17489;DHT22;8861;52.644;4.734;2022-08-16T06:14:26;21.80;99.90
17489;DHT22;8861;52.644;4.734;2022-08-16T06:16:53;21.80;99.90
17489;DHT22;8861;52.644;4.734;2022-08-16T06:19:21;21.80;99.90
17489;DHT22;8861;52.644;4.734;2022-08-16T06:21:48;21.90;99.90
17489;DHT22;8861;52.644;4.734;2022-08-16T06:24:15;21.80;99.90
17489;DHT22;8861;52.644;4.734;2022-08-16T06:26:42;21.80;99.90
17489;DHT22;8861;52.644;4.734;2022-08-16T06:29:09;21.80;99.90
17489;DHT22;8861;52.644;4.734;2022-08-16T06:31:36;21.70;99.90
17489;DHT22;8861;52.644;4.734;2022-08-16T06:34:03;21.70;99.90
17489;DHT22;8861;52.644;4.734;2022-08-16T06:36:32;21.60;99.90
17489;DHT22;8861;52.644;4.734;2022-08-16T06:38:59;21.60;99.90
17489;DHT22;8861;52.644;4.734;2022-08-16T06:41:26;21.50;99.90
17489;DHT22;8861;52.644;4.734;2022-08-16T06:43:52;21.40;99.90
17489;DHT22;8861;52.644;4.734;2022-08-16T06:46:23;21.50;99.90
17489;DHT22;8861;52.644;4.734;2022-08-16T06:48:50;21.50;99.90
17489;DHT22;8861;52.644;4.734;2022-08-16T06:51:17;21.70;99.90
17489;DHT22;8861;52.644;4.734;2022-08-16T06:53:45;21.80;99.90
17489;DHT22;8861;52.644;4.734;2022-08-16T06:56:12;22.00;99.90
17489;DHT22;8861;52.644;4.734;2022-08-16T06:58:39;22.10;99.90
17489;DHT22;8861;52.644;4.734;2022-08-16T07:01:06;22.10;99.90
17489;DHT22;8861;52.644;4.734;2022-08-16T07:03:33;22.30;99.90
17489;DHT22;8861;52.644;4.734;2022-08-16T07:06:00;22.40;99.90
17489;DHT22;8861;52.644;4.734;2022-08-16T07:08:27;22.40;99.90
17489;DHT22;8861;52.644;4.734;2022-08-16T07:10:56;22.50;99.90
17489;DHT22;8861;52.644;4.734;2022-08-16T07:13:24;22.40;99.90
17489;DHT22;8861;52.644;4.734;2022-08-16T07:15:51;22.30;99.90
17489;DHT22;8861;52.644;4.734;2022-08-16T07:18:18;22.20;99.90
17489;DHT22;8861;52.644;4.734;2022-08-16T07:20:46;22.10;99.90
17489;DHT22;8861;52.644;4.734;2022-08-16T07:23:14;22.10;99.90
17489;DHT22;8861;52.644;4.734;2022-08-16T07:25:41;22.20;99.90
17489;DHT22;8861;52.644;4.734;2022-08-16T07:28:11;22.30;99.90
17489;DHT22;8861;52.644;4.734;2022-08-16T07:30:38;22.30;99.90
17489;DHT22;8861;52.644;4.734;2022-08-16T07:33:06;22.40;99.90
17489;DHT22;8861;52.644;4.734;2022-08-16T07:35:34;22.50;99.90
17489;DHT22;8861;52.644;4.734;2022-08-16T07:38:01;22.50;99.90
17489;DHT22;8861;52.644;4.734;2022-08-16T07:40:28;22.60;99.90
17489;DHT22;8861;52.644;4.734;2022-08-16T07:42:55;22.70;99.90
17489;DHT22;8861;52.644;4.734;2022-08-16T07:45:23;22.70;99.90
17489;DHT22;8861;52.644;4.734;2022-08-16T07:47:50;22.70;99.90
17489;DHT22;8861;52.644;4.734;2022-08-16T07:50:17;22.70;99.90
17489;DHT22;8861;52.644;4.734;2022-08-16T07:52:45;22.70;99.90
17489;DHT22;8861;52.644;4.734;2022-08-16T07:55:15;22.80;99.90
17489;DHT22;8861;52.644;4.734;2022-08-16T07:57:43;22.80;99.90
17489;DHT22;8861;52.644;4.734;2022-08-16T08:00:11;22.80;99.90
17489;DHT22;8861;52.644;4.734;2022-08-16T08:02:40;22.80;99.90
17489;DHT22;8861;52.644;4.734;2022-08-16T08:05:07;22.70;99.90
17489;DHT22;8861;52.644;4.734;2022-08-16T08:07:34;22.80;99.90
17489;DHT22;8861;52.644;4.734;2022-08-16T08:10:03;22.80;99.90
17489;DHT22;8861;52.644;4.734;2022-08-16T08:12:31;22.90;99.90
17489;DHT22;8861;52.644;4.734;2022-08-16T08:14:58;22.90;99.90
17489;DHT22;8861;52.644;4.734;2022-08-16T08:17:25;22.90;99.90
17489;DHT22;8861;52.644;4.734;2022-08-16T08:19:55;23.00;99.90
17489;DHT22;8861;52.644;4.734;2022-08-16T08:22:22;23.00;99.90
17489;DHT22;8861;52.644;4.734;2022-08-16T08:24:48;23.00;99.90
17489;DHT22;8861;52.644;4.734;2022-08-16T08:27:16;23.10;99.90
17489;DHT22;8861;52.644;4.734;2022-08-16T08:29:43;23.10;99.90
17489;DHT22;8861;52.644;4.734;2022-08-16T08:32:11;23.20;99.90
17489;DHT22;8861;52.644;4.734;2022-08-16T08:34:38;23.20;99.90
17489;DHT22;8861;52.644;4.734;2022-08-16T08:37:06;23.20;99.90
17489;DHT22;8861;52.644;4.734;2022-08-16T08:39:33;23.20;99.90
17489;DHT22;8861;52.644;4.734;2022-08-16T08:42:03;23.30;99.90
17489;DHT22;8861;52.644;4.734;2022-08-16T08:44:31;23.30;99.90
17489;DHT22;8861;52.644;4.734;2022-08-16T08:46:58;23.40;99.90
17489;DHT22;8861;52.644;4.734;2022-08-16T08:49:26;23.40;99.90
17489;DHT22;8861;52.644;4.734;2022-08-16T08:51:52;23.40;99.90
17489;DHT22;8861;52.644;4.734;2022-08-16T08:54:21;23.40;99.90
17489;DHT22;8861;52.644;4.734;2022-08-16T08:56:48;23.40;99.90
17489;DHT22;8861;52.644;4.734;2022-08-16T08:59:16;23.50;99.90
17489;DHT22;8861;52.644;4.734;2022-08-16T09:01:43;23.50;99.90
17489;DHT22;8861;52.644;4.734;2022-08-16T09:04:11;23.50;99.90
17489;DHT22;8861;52.644;4.734;2022-08-16T09:06:38;23.50;99.90
17489;DHT22;8861;52.644;4.734;2022-08-16T09:09:06;23.50;99.90
17489;DHT22;8861;52.644;4.734;2022-08-16T09:11:35;23.50;99.90
17489;DHT22;8861;52.644;4.734;2022-08-16T09:14:03;23.60;99.90
17489;DHT22;8861;52.644;4.734;2022-08-16T09:16:30;23.60;99.90
17489;DHT22;8861;52.644;4.734;2022-08-16T09:18:57;23.70;99.90
17489;DHT22;8861;52.644;4.734;2022-08-16T09:21:25;23.70;99.90
17489;DHT22;8861;52.644;4.734;2022-08-16T09:23:52;23.70;99.90
17489;DHT22;8861;52.644;4.734;2022-08-16T09:26:19;23.80;99.90
17489;DHT22;8861;52.644;4.734;2022-08-16T09:28:47;23.80;99.90
17489;DHT22;8861;52.644;4.734;2022-08-16T09:31:15;23.80;99.90
17489;DHT22;8861;52.644;4.734;2022-08-16T09:33:43;23.80;99.90
17489;DHT22;8861;52.644;4.734;2022-08-16T09:36:11;23.90;99.90
17489;DHT22;8861;52.644;4.734;2022-08-16T09:38:38;24.00;99.90
17489;DHT22;8861;52.644;4.734;2022-08-16T09:41:07;24.00;99.90
17489;DHT22;8861;52.644;4.734;2022-08-16T09:43:36;24.00;99.90
17489;DHT22;8861;52.644;4.734;2022-08-16T09:46:06;24.10;99.90
17489;DHT22;8861;52.644;4.734;2022-08-16T09:48:35;24.20;99.90
17489;DHT22;8861;52.644;4.734;2022-08-16T09:51:06;24.30;99.90
17489;DHT22;8861;52.644;4.734;2022-08-16T09:53:34;24.30;99.90
17489;DHT22;8861;52.644;4.734;2022-08-16T09:56:04;24.30;99.90
17489;DHT22;8861;52.644;4.734;2022-08-16T09:58:34;24.30;99.90
17489;DHT22;8861;52.644;4.734;2022-08-16T10:01:01;24.30;99.90
17489;DHT22;8861;52.644;4.734;2022-08-16T10:03:29;24.40;99.90
17489;DHT22;8861;52.644;4.734;2022-08-16T10:05:56;24.40;99.90
17489;DHT22;8861;52.644;4.734;2022-08-16T10:08:24;24.30;99.90
17489;DHT22;8861;52.644;4.734;2022-08-16T10:10:51;24.30;99.90
17489;DHT22;8861;52.644;4.734;2022-08-16T10:13:35;24.40;99.90
17489;DHT22;8861;52.644;4.734;2022-08-16T10:16:04;24.50;99.90
17489;DHT22;8861;52.644;4.734;2022-08-16T10:18:32;24.70;99.90
17489;DHT22;8861;52.644;4.734;2022-08-16T10:21:00;24.90;99.90
17489;DHT22;8861;52.644;4.734;2022-08-16T10:23:27;25.10;99.90
17489;DHT22;8861;52.644;4.734;2022-08-16T10:25:54;25.10;99.90
17489;DHT22;8861;52.644;4.734;2022-08-16T10:28:21;25.30;99.90
17489;DHT22;8861;52.644;4.734;2022-08-16T10:30:48;25.40;99.90
17489;DHT22;8861;52.644;4.734;2022-08-16T10:33:15;25.60;99.90
17489;DHT22;8861;52.644;4.734;2022-08-16T10:35:44;25.70;99.90
17489;DHT22;8861;52.644;4.734;2022-08-16T10:38:12;25.90;99.90
17489;DHT22;8861;52.644;4.734;2022-08-16T10:40:41;25.90;99.90
17489;DHT22;8861;52.644;4.734;2022-08-16T10:43:08;25.90;99.90
17489;DHT22;8861;52.644;4.734;2022-08-16T10:45:35;25.90;99.90
17489;DHT22;8861;52.644;4.734;2022-08-16T10:48:04;25.90;99.90
17489;DHT22;8861;52.644;4.734;2022-08-16T10:50:32;25.80;99.90
17489;DHT22;8861;52.644;4.734;2022-08-16T10:53:02;25.80;99.90
17489;DHT22;8861;52.644;4.734;2022-08-16T10:55:32;25.60;99.90
17489;DHT22;8861;52.644;4.734;2022-08-16T10:58:05;25.50;99.90
17489;DHT22;8861;52.644;4.734;2022-08-16T11:00:33;25.50;99.90
17489;DHT22;8861;52.644;4.734;2022-08-16T11:03:01;25.60;99.90
17489;DHT22;8861;52.644;4.734;2022-08-16T11:05:30;25.80;99.90
17489;DHT22;8861;52.644;4.734;2022-08-16T11:07:57;25.80;99.90
17489;DHT22;8861;52.644;4.734;2022-08-16T11:10:28;25.80;99.90
17489;DHT22;8861;52.644;4.734;2022-08-16T11:12:56;25.70;99.90
17489;DHT22;8861;52.644;4.734;2022-08-16T11:15:24;25.60;99.90
17489;DHT22;8861;52.644;4.734;2022-08-16T11:17:52;25.40;99.90
17489;DHT22;8861;52.644;4.734;2022-08-16T11:20:19;25.20;99.90
17489;DHT22;8861;52.644;4.734;2022-08-16T11:22:47;25.10;99.90
17489;DHT22;8861;52.644;4.734;2022-08-16T11:25:15;25.00;99.90
17489;DHT22;8861;52.644;4.734;2022-08-16T11:27:44;25.00;99.90
17489;DHT22;8861;52.644;4.734;2022-08-16T11:30:13;24.90;99.90
17489;DHT22;8861;52.644;4.734;2022-08-16T11:32:41;24.90;99.90
17489;DHT22;8861;52.644;4.734;2022-08-16T11:35:10;25.00;99.90
17489;DHT22;8861;52.644;4.734;2022-08-16T11:37:38;25.10;99.90
17489;DHT22;8861;52.644;4.734;2022-08-16T11:40:07;25.20;99.90
17489;DHT22;8861;52.644;4.734;2022-08-16T11:42:34;25.30;99.90
17489;DHT22;8861;52.644;4.734;2022-08-16T11:45:03;25.30;99.90
17489;DHT22;8861;52.644;4.734;2022-08-16T11:47:30;25.30;99.90
17489;DHT22;8861;52.644;4.734;2022-08-16T11:49:56;25.30;99.90
17489;DHT22;8861;52.644;4.734;2022-08-16T11:52:25;25.40;99.90
17489;DHT22;8861;52.644;4.734;2022-08-16T11:54:52;25.50;99.90
17489;DHT22;8861;52.644;4.734;2022-08-16T11:57:19;25.60;99.90
17489;DHT22;8861;52.644;4.734;2022-08-16T11:59:46;25.70;99.90
17489;DHT22;8861;52.644;4.734;2022-08-16T12:02:14;25.90;99.90
17489;DHT22;8861;52.644;4.734;2022-08-16T12:04:41;26.20;99.90
17489;DHT22;8861;52.644;4.734;2022-08-16T12:07:09;26.50;99.90
17489;DHT22;8861;52.644;4.734;2022-08-16T12:09:37;26.80;99.90
17489;DHT22;8861;52.644;4.734;2022-08-16T12:12:04;27.10;99.90
17489;DHT22;8861;52.644;4.734;2022-08-16T12:14:32;27.50;99.90
17489;DHT22;8861;52.644;4.734;2022-08-16T12:17:00;27.90;99.90
17489;DHT22;8861;52.644;4.734;2022-08-16T12:19:29;28.40;99.90
17489;DHT22;8861;52.644;4.734;2022-08-16T12:21:57;28.90;99.90
17489;DHT22;8861;52.644;4.734;2022-08-16T12:24:26;29.40;99.90
17489;DHT22;8861;52.644;4.734;2022-08-16T12:26:53;29.70;99.90
17489;DHT22;8861;52.644;4.734;2022-08-16T12:29:21;30.00;99.90
17489;DHT22;8861;52.644;4.734;2022-08-16T12:31:48;30.00;99.90
17489;DHT22;8861;52.644;4.734;2022-08-16T12:34:16;29.70;99.90
17489;DHT22;8861;52.644;4.734;2022-08-16T12:36:45;29.40;99.90
17489;DHT22;8861;52.644;4.734;2022-08-16T12:39:12;29.00;99.90
17489;DHT22;8861;52.644;4.734;2022-08-16T12:41:39;28.80;99.90
17489;DHT22;8861;52.644;4.734;2022-08-16T12:44:11;28.40;99.90
17489;DHT22;8861;52.644;4.734;2022-08-16T12:46:39;28.10;99.90
17489;DHT22;8861;52.644;4.734;2022-08-16T12:49:06;27.80;99.90
17489;DHT22;8861;52.644;4.734;2022-08-16T12:51:35;27.60;99.90
17489;DHT22;8861;52.644;4.734;2022-08-16T12:54:05;27.60;99.90
17489;DHT22;8861;52.644;4.734;2022-08-16T12:56:36;27.70;99.90
17489;DHT22;8861;52.644;4.734;2022-08-16T12:59:08;27.70;99.90
17489;DHT22;8861;52.644;4.734;2022-08-16T13:01:37;27.80;99.90
17489;DHT22;8861;52.644;4.734;2022-08-16T13:04:07;27.80;99.90
17489;DHT22;8861;52.644;4.734;2022-08-16T13:06:35;27.80;99.90
17489;DHT22;8861;52.644;4.734;2022-08-16T13:09:05;27.70;99.90
17489;DHT22;8861;52.644;4.734;2022-08-16T13:11:52;27.80;99.90
17489;DHT22;8861;52.644;4.734;2022-08-16T13:14:25;27.80;99.90
17489;DHT22;8861;52.644;4.734;2022-08-16T13:16:52;27.90;99.90
17489;DHT22;8861;52.644;4.734;2022-08-16T13:19:19;27.80;99.90
17489;DHT22;8861;52.644;4.734;2022-08-16T13:21:46;27.90;99.90
17489;DHT22;8861;52.644;4.734;2022-08-16T13:24:15;28.00;99.90
17489;DHT22;8861;52.644;4.734;2022-08-16T13:26:41;27.90;99.90
17489;DHT22;8861;52.644;4.734;2022-08-16T13:29:08;27.80;99.90
17489;DHT22;8861;52.644;4.734;2022-08-16T13:31:35;27.70;99.90
17489;DHT22;8861;52.644;4.734;2022-08-16T13:34:02;27.50;99.90
17489;DHT22;8861;52.644;4.734;2022-08-16T13:36:29;27.40;99.90
17489;DHT22;8861;52.644;4.734;2022-08-16T13:38:56;27.40;99.90
17489;DHT22;8861;52.644;4.734;2022-08-16T13:41:25;27.50;99.90
17489;DHT22;8861;52.644;4.734;2022-08-16T13:43:53;27.40;99.90
17489;DHT22;8861;52.644;4.734;2022-08-16T13:46:20;27.40;99.90
17489;DHT22;8861;52.644;4.734;2022-08-16T13:48:46;27.50;99.90
17489;DHT22;8861;52.644;4.734;2022-08-16T13:51:15;27.50;99.90
17489;DHT22;8861;52.644;4.734;2022-08-16T13:53:42;27.50;99.90
17489;DHT22;8861;52.644;4.734;2022-08-16T13:56:09;27.40;99.90
17489;DHT22;8861;52.644;4.734;2022-08-16T13:58:37;27.40;99.90
17489;DHT22;8861;52.644;4.734;2022-08-16T14:01:05;27.40;99.90
17489;DHT22;8861;52.644;4.734;2022-08-16T14:03:32;27.50;99.90
17489;DHT22;8861;52.644;4.734;2022-08-16T14:05:59;27.60;99.90
17489;DHT22;8861;52.644;4.734;2022-08-16T14:08:26;27.80;99.90
17489;DHT22;8861;52.644;4.734;2022-08-16T14:10:53;27.90;99.90
17489;DHT22;8861;52.644;4.734;2022-08-16T14:13:20;27.90;99.90
17489;DHT22;8861;52.644;4.734;2022-08-16T14:15:49;27.80;99.90
17489;DHT22;8861;52.644;4.734;2022-08-16T14:18:16;27.70;99.90
17489;DHT22;8861;52.644;4.734;2022-08-16T14:20:43;27.70;99.90
17489;DHT22;8861;52.644;4.734;2022-08-16T14:23:10;27.90;99.90
17489;DHT22;8861;52.644;4.734;2022-08-16T14:25:36;28.10;99.90
17489;DHT22;8861;52.644;4.734;2022-08-16T14:28:04;28.20;99.90
17489;DHT22;8861;52.644;4.734;2022-08-16T14:30:31;28.00;99.90
17489;DHT22;8861;52.644;4.734;2022-08-16T14:33:00;28.00;99.90
17489;DHT22;8861;52.644;4.734;2022-08-16T14:35:30;28.10;99.90
17489;DHT22;8861;52.644;4.734;2022-08-16T14:37:57;28.20;99.90
17489;DHT22;8861;52.644;4.734;2022-08-16T14:40:25;28.10;99.90
17489;DHT22;8861;52.644;4.734;2022-08-16T14:42:52;28.00;99.90
17489;DHT22;8861;52.644;4.734;2022-08-16T14:45:22;27.70;99.90
17489;DHT22;8861;52.644;4.734;2022-08-16T14:47:50;27.30;99.90
17489;DHT22;8861;52.644;4.734;2022-08-16T14:50:20;27.00;99.90
17489;DHT22;8861;52.644;4.734;2022-08-16T14:52:53;26.90;99.90
17489;DHT22;8861;52.644;4.734;2022-08-16T14:55:20;26.80;99.90
17489;DHT22;8861;52.644;4.734;2022-08-16T14:57:47;26.70;99.90
17489;DHT22;8861;52.644;4.734;2022-08-16T15:00:15;26.60;99.90
17489;DHT22;8861;52.644;4.734;2022-08-16T15:02:43;26.60;99.90
17489;DHT22;8861;52.644;4.734;2022-08-16T15:05:10;26.50;99.90
17489;DHT22;8861;52.644;4.734;2022-08-16T15:07:41;26.40;99.90
17489;DHT22;8861;52.644;4.734;2022-08-16T15:10:08;26.40;99.90
17489;DHT22;8861;52.644;4.734;2022-08-16T15:12:35;26.50;99.90
17489;DHT22;8861;52.644;4.734;2022-08-16T15:15:06;26.40;99.90
17489;DHT22;8861;52.644;4.734;2022-08-16T15:17:33;26.40;99.90
17489;DHT22;8861;52.644;4.734;2022-08-16T15:20:00;26.40;99.90
17489;DHT22;8861;52.644;4.734;2022-08-16T15:22:32;26.20;99.90
17489;DHT22;8861;52.644;4.734;2022-08-16T15:25:05;25.90;99.90
17489;DHT22;8861;52.644;4.734;2022-08-16T15:27:33;25.70;99.90
17489;DHT22;8861;52.644;4.734;2022-08-16T15:30:08;25.60;99.90
17489;DHT22;8861;52.644;4.734;2022-08-16T15:32:36;25.60;99.90
17489;DHT22;8861;52.644;4.734;2022-08-16T15:35:04;25.70;99.90
17489;DHT22;8861;52.644;4.734;2022-08-16T15:37:31;25.80;99.90
17489;DHT22;8861;52.644;4.734;2022-08-16T15:40:03;25.90;99.90
17489;DHT22;8861;52.644;4.734;2022-08-16T15:42:31;26.10;99.90
17489;DHT22;8861;52.644;4.734;2022-08-16T15:44:59;26.20;99.90
17489;DHT22;8861;52.644;4.734;2022-08-16T15:47:27;26.40;99.90
17489;DHT22;8861;52.644;4.734;2022-08-16T15:49:57;26.40;99.90